createdAt,value
2023-09-20T00:01:52.879Z,99910.22
2023-09-20T00:04:20.937Z,99911.03
2023-09-20T00:06:47.457Z,99908.34
2023-09-20T00:09:15.815Z,99912.66
2023-09-20T00:11:44.481Z,99913.88
2023-09-20T00:14:11.433Z,99915.84
2023-09-20T00:16:37.920Z,99911.69
2023-09-20T00:19:04.466Z,99924.13
2023-09-20T00:21:30.964Z,99937.22
2023-09-20T00:23:57.453Z,99924.16
2023-09-20T00:26:24.617Z,99927.63
2023-09-20T00:28:51.232Z,99926.84
2023-09-20T00:31:17.890Z,99921.78
2023-09-20T00:33:45.312Z,99923.50
2023-09-20T00:36:21.616Z,99923.88
2023-09-20T00:38:49.024Z,99922.13
2023-09-20T00:41:16.445Z,99924.97
2023-09-20T00:43:43.093Z,99918.97
2023-09-20T00:46:10.810Z,99928.44
2023-09-20T00:48:40.180Z,99923.22
2023-09-20T00:51:07.624Z,99935.28
2023-09-20T00:53:36.612Z,99932.75
2023-09-20T00:56:06.078Z,99920.72
2023-09-20T00:58:35.638Z,99921.47
2023-09-20T01:01:05.175Z,99910.38
2023-09-20T01:03:36.773Z,99917.22
2023-09-20T01:06:09.891Z,99920.03
2023-09-20T01:08:36.451Z,99912.56
2023-09-20T01:11:03.035Z,99924.84
2023-09-20T01:13:29.620Z,99911.91
2023-09-20T01:15:56.209Z,99911.13
2023-09-20T01:18:22.835Z,99907.00
2023-09-20T01:20:49.443Z,99911.44
2023-09-20T01:23:15.968Z,99908.72
2023-09-20T01:25:44.574Z,99905.25
2023-09-20T01:28:12.048Z,99906.00
2023-09-20T01:30:40.436Z,99910.97
2023-09-20T01:33:08.499Z,99915.16
2023-09-20T01:35:36.097Z,99914.72
2023-09-20T01:38:07.804Z,99917.31
2023-09-20T01:40:35.839Z,99912.31
2023-09-20T01:43:07.707Z,99913.41
2023-09-20T01:45:38.294Z,99913.44
2023-09-20T01:48:11.942Z,99914.38
2023-09-20T01:50:39.510Z,99922.22
2023-09-20T01:53:09.595Z,99916.19
2023-09-20T01:55:38.408Z,99923.09
2023-09-20T01:58:08.335Z,99916.34
2023-09-20T02:00:41.327Z,99920.59
2023-09-20T02:03:17.652Z,99923.34
2023-09-20T02:05:45.763Z,99911.03
2023-09-20T02:08:12.352Z,99911.91
2023-09-20T02:10:39.497Z,99915.38
2023-09-20T02:13:07.250Z,99907.75
2023-09-20T02:15:41.973Z,99915.34
2023-09-20T02:18:10.439Z,99908.13
2023-09-20T02:20:40.586Z,99901.81
2023-09-20T02:23:13.872Z,99908.09
2023-09-20T02:25:42.210Z,99910.81
2023-09-20T02:28:09.550Z,99915.25
2023-09-20T02:30:39.491Z,99914.50
2023-09-20T02:33:08.615Z,99908.41
2023-09-20T02:35:37.868Z,99910.16
2023-09-20T02:38:07.961Z,99912.97
2023-09-20T02:40:36.356Z,99912.28
2023-09-20T02:43:05.278Z,99911.44
2023-09-20T02:45:34.575Z,99917.63
2023-09-20T02:48:05.951Z,99900.44
2023-09-20T02:50:33.167Z,99921.13
2023-09-20T02:53:00.138Z,99921.88
2023-09-20T02:55:28.240Z,99917.53
2023-09-20T02:57:56.082Z,99920.06
2023-09-20T03:00:31.263Z,99917.41
2023-09-20T03:03:02.369Z,99919.31
2023-09-20T03:05:34.288Z,99908.06
2023-09-20T03:08:12.751Z,99911.69
2023-09-20T03:10:42.732Z,99917.84
2023-09-20T03:13:18.365Z,99922.28
2023-09-20T03:15:46.075Z,99924.94
2023-09-20T03:18:14.710Z,99917.06
2023-09-20T03:20:45.034Z,99931.00
2023-09-20T03:23:11.968Z,99930.03
2023-09-20T03:25:38.513Z,99929.22
2023-09-20T03:28:08.973Z,99925.56
2023-09-20T03:30:37.625Z,99918.75
2023-09-20T03:33:05.665Z,99930.91
2023-09-20T03:35:33.581Z,99917.84
2023-09-20T03:38:00.137Z,99922.00
2023-09-20T03:40:29.434Z,99918.50
2023-09-20T03:42:55.981Z,99915.06
2023-09-20T03:45:25.137Z,99918.53
2023-09-20T03:47:58.067Z,99918.59
2023-09-20T03:50:25.374Z,99915.97
2023-09-20T03:52:53.332Z,99915.22
2023-09-20T03:55:20.911Z,99913.41
2023-09-20T03:57:47.476Z,99919.25
2023-09-20T04:00:18.032Z,99915.81
2023-09-20T04:02:49.435Z,99913.94
2023-09-20T04:05:26.895Z,99913.19
2023-09-20T04:08:01.845Z,99915.06
2023-09-20T04:10:28.928Z,99917.75
2023-09-20T04:12:55.780Z,99922.94
2023-09-20T04:15:22.280Z,99916.66
2023-09-20T04:17:49.711Z,99918.59
2023-09-20T04:20:16.422Z,99918.63
2023-09-20T04:22:42.927Z,99920.34
2023-09-20T04:25:12.270Z,99924.63
2023-09-20T04:27:39.279Z,99927.22
2023-09-20T04:30:09.069Z,99922.00
2023-09-20T04:32:37.123Z,99927.09
2023-09-20T04:35:05.550Z,99934.13
2023-09-20T04:37:32.392Z,99929.63
2023-09-20T04:39:58.922Z,99937.34
2023-09-20T04:42:25.384Z,99939.97
2023-09-20T04:44:52.471Z,99938.38
2023-09-20T04:47:19.490Z,99943.50
2023-09-20T04:49:46.386Z,99936.53
2023-09-20T04:52:16.876Z,99941.66
2023-09-20T04:54:45.374Z,99943.28
2023-09-20T04:57:14.238Z,99950.13
2023-09-20T04:59:43.597Z,99948.28
2023-09-20T05:02:10.649Z,99951.69
2023-09-20T05:04:37.556Z,99956.63
2023-09-20T05:07:07.913Z,99965.09
2023-09-20T05:09:35.701Z,99961.53
2023-09-20T05:12:03.755Z,99961.03
2023-09-20T05:14:30.753Z,99955.59
2023-09-20T05:16:57.350Z,99966.00
2023-09-20T05:19:26.749Z,99966.06
2023-09-20T05:21:53.353Z,99971.81
2023-09-20T05:24:19.932Z,99968.94
2023-09-20T05:26:46.461Z,99970.53
2023-09-20T05:29:13.038Z,99966.84
2023-09-20T05:31:39.650Z,99963.97
2023-09-20T05:34:06.657Z,99966.34
2023-09-20T05:36:33.905Z,99978.00
2023-09-20T05:39:00.546Z,99968.81
2023-09-20T05:41:29.352Z,99989.75
2023-09-20T05:43:56.256Z,99994.84
2023-09-20T05:46:25.945Z,99987.13
2023-09-20T05:48:53.687Z,99983.47
2023-09-20T05:51:21.564Z,99991.78
2023-09-20T05:53:52.119Z,99995.50
2023-09-20T05:56:20.122Z,99987.91
2023-09-20T05:58:47.004Z,99985.47
2023-09-20T06:01:19.174Z,99985.06
2023-09-20T06:03:47.838Z,99994.56
2023-09-20T06:06:15.233Z,99991.63
2023-09-20T06:08:43.678Z,99989.28
2023-09-20T06:11:10.725Z,99994.91
2023-09-20T06:13:39.071Z,99999.22
2023-09-20T06:16:08.461Z,99999.13
2023-09-20T06:18:37.685Z,99999.69
2023-09-20T06:21:05.003Z,99997.78
2023-09-20T06:23:32.896Z,99994.09
2023-09-20T06:26:05.506Z,99995.16
2023-09-20T06:28:32.671Z,100002.53
2023-09-20T06:31:00.455Z,99995.03
2023-09-20T06:33:27.117Z,99993.25
2023-09-20T06:35:56.547Z,100005.84
2023-09-20T06:38:25.224Z,100005.56
2023-09-20T06:40:53.906Z,100001.13
2023-09-20T06:43:21.006Z,100006.19
2023-09-20T06:45:51.843Z,100008.16
2023-09-20T06:48:26.527Z,100009.41
2023-09-20T06:50:55.561Z,100005.88
2023-09-20T06:53:25.039Z,100006.72
2023-09-20T06:55:52.005Z,100009.88
2023-09-20T06:58:20.768Z,100013.84
2023-09-20T07:00:48.412Z,100010.88
2023-09-20T07:03:15.382Z,100012.19
2023-09-20T07:05:42.283Z,100021.97
2023-09-20T07:08:09.581Z,100019.59
2023-09-20T07:10:38.088Z,100020.97
2023-09-20T07:13:07.376Z,100026.88
2023-09-20T07:15:36.607Z,100026.94
2023-09-20T07:18:13.538Z,100024.75
2023-09-20T07:20:45.341Z,100031.66
2023-09-20T07:23:16.723Z,100029.97
2023-09-20T07:25:44.421Z,100032.09
2023-09-20T07:28:11.370Z,100027.84
2023-09-20T07:30:46.265Z,100031.38
2023-09-20T07:33:25.576Z,100042.41
2023-09-20T07:36:00.356Z,100033.25
2023-09-20T07:38:29.904Z,100031.25
2023-09-20T07:41:09.814Z,100032.22
2023-09-20T07:43:40.183Z,100026.19
2023-09-20T07:46:07.301Z,100025.28
2023-09-20T07:48:34.871Z,100029.25
2023-09-20T07:51:05.469Z,100022.53
2023-09-20T07:53:32.401Z,100031.94
2023-09-20T07:55:58.870Z,100025.59
2023-09-20T07:58:25.570Z,100028.13
2023-09-20T08:00:53.819Z,100016.72
2023-09-20T08:03:22.165Z,100035.94
2023-09-20T08:05:54.447Z,100029.34
2023-09-20T08:08:24.150Z,100034.53
2023-09-20T08:11:06.736Z,100025.31
2023-09-20T08:13:37.395Z,100029.50
2023-09-20T08:16:10.022Z,100030.94
2023-09-20T08:18:56.498Z,100029.13
2023-09-20T08:21:23.259Z,100036.91
2023-09-20T08:24:08.707Z,100031.25
2023-09-20T08:26:54.019Z,100018.16
2023-09-20T08:29:38.827Z,100028.69
2023-09-20T08:32:23.625Z,100026.84
2023-09-20T08:35:08.535Z,100023.03
2023-09-20T08:37:53.695Z,100022.50
2023-09-20T08:40:39.641Z,100020.59
2023-09-20T08:43:25.482Z,100022.16
2023-09-20T08:46:11.181Z,100021.59
2023-09-20T08:49:01.129Z,100026.03
2023-09-20T08:52:16.663Z,100021.81
2023-09-20T08:55:02.660Z,100019.06
2023-09-20T08:57:48.525Z,100026.06
2023-09-20T09:00:29.323Z,100021.94
2023-09-20T09:02:59.471Z,100017.97
2023-09-20T09:05:29.380Z,100013.81
2023-09-20T09:07:58.308Z,100011.44
2023-09-20T09:10:25.491Z,100013.81
2023-09-20T09:12:52.197Z,100003.53
2023-09-20T09:15:19.166Z,99998.97
2023-09-20T09:17:47.546Z,99998.72
2023-09-20T09:20:22.322Z,99986.09
2023-09-20T09:22:50.632Z,99982.00
2023-09-20T09:25:19.791Z,99981.03
2023-09-20T09:27:46.616Z,99977.78
2023-09-20T09:30:15.700Z,99977.91
2023-09-20T09:32:51.266Z,99976.78
2023-09-20T09:35:27.741Z,99970.47
2023-09-20T09:38:05.879Z,99977.22
2023-09-20T09:40:32.565Z,99975.22
2023-09-20T09:43:12.886Z,99972.47
2023-09-20T09:45:39.738Z,99960.53
2023-09-20T09:48:08.406Z,99962.81
2023-09-20T09:50:39.730Z,99963.78
2023-09-20T09:53:07.775Z,99964.72
2023-09-20T09:55:34.850Z,99959.19
2023-09-20T09:58:05.409Z,99963.25
2023-09-20T10:00:34.438Z,99956.59
2023-09-20T10:03:12.532Z,99962.50
2023-09-20T10:05:43.902Z,99950.53
2023-09-20T10:08:14.002Z,99943.44
2023-09-20T10:10:42.858Z,99943.31
2023-09-20T10:13:13.653Z,99948.16
2023-09-20T10:15:40.641Z,99952.81
2023-09-20T10:18:07.528Z,99956.16
2023-09-20T10:21:06.216Z,99943.91
2023-09-20T10:23:36.406Z,99939.75
2023-09-20T10:26:03.192Z,99944.03
2023-09-20T10:28:39.497Z,99943.88
2023-09-20T10:31:06.270Z,99942.13
2023-09-20T10:33:59.025Z,99939.19
2023-09-20T10:36:28.456Z,99931.69
2023-09-20T10:39:21.180Z,99930.44
2023-09-20T10:41:53.651Z,99926.13
2023-09-20T10:44:32.156Z,99928.13
2023-09-20T10:47:00.056Z,99931.38
2023-09-20T10:49:49.838Z,99935.22
2023-09-20T10:52:34.587Z,99927.34
2023-09-20T10:55:25.631Z,99918.84
2023-09-20T10:57:53.081Z,99907.66
2023-09-20T11:00:26.625Z,99914.94
2023-09-20T11:02:53.838Z,99903.03
2023-09-20T11:05:21.081Z,99902.06
2023-09-20T11:07:48.109Z,99910.81
2023-09-20T11:10:18.364Z,99904.19
2023-09-20T11:12:45.563Z,99906.06
2023-09-20T11:15:14.480Z,99888.78
2023-09-20T11:17:41.155Z,99890.94
2023-09-20T11:20:09.120Z,99886.56
2023-09-20T11:22:37.232Z,99886.94
2023-09-20T11:25:05.872Z,99889.84
2023-09-20T11:27:38.168Z,99895.78
2023-09-20T11:30:09.989Z,99891.78
2023-09-20T11:32:40.037Z,99884.91
2023-09-20T11:35:08.250Z,99894.94
2023-09-20T11:37:36.722Z,99890.81
2023-09-20T11:40:06.008Z,99894.19
2023-09-20T11:42:35.607Z,99882.34
2023-09-20T11:45:43.715Z,99877.97
2023-09-20T11:47:59.458Z,99877.00
2023-09-20T11:50:26.229Z,99875.53
2023-09-20T11:52:54.585Z,99876.44
2023-09-20T11:55:23.162Z,99866.91
2023-09-20T11:57:49.998Z,99859.44
2023-09-20T12:00:18.399Z,99854.69
2023-09-20T12:02:46.116Z,99865.78
2023-09-20T12:05:12.952Z,99862.53
2023-09-20T12:07:39.668Z,99852.50
2023-09-20T12:10:08.452Z,99854.19
2023-09-20T12:12:35.641Z,99848.06
2023-09-20T12:15:02.945Z,99846.00
2023-09-20T12:17:30.688Z,99852.63
2023-09-20T12:19:57.297Z,99855.53
2023-09-20T12:22:23.796Z,99842.72
2023-09-20T12:24:50.297Z,99839.94
2023-09-20T12:27:18.759Z,99833.34
2023-09-20T12:29:45.383Z,99834.00
2023-09-20T12:32:12.403Z,99824.53
2023-09-20T12:34:39.042Z,99826.78
2023-09-20T12:37:06.626Z,99814.19
2023-09-20T12:39:39.745Z,99828.16
2023-09-20T12:42:08.525Z,99818.81
2023-09-20T12:44:35.232Z,99820.69
2023-09-20T12:47:01.770Z,99810.69
2023-09-20T12:49:28.245Z,99811.28
2023-09-20T12:51:54.863Z,99809.69
2023-09-20T12:54:21.409Z,99801.81
2023-09-20T12:56:48.403Z,99789.31
2023-09-20T12:59:15.084Z,99793.47
2023-09-20T13:01:41.720Z,99794.19
2023-09-20T13:04:08.622Z,99782.28
2023-09-20T13:06:37.810Z,99768.81
2023-09-20T13:09:04.554Z,99768.06
2023-09-20T13:11:31.097Z,99763.88
2023-09-20T13:13:57.689Z,99768.88
2023-09-20T13:16:25.934Z,99772.84
2023-09-20T13:18:52.544Z,99763.31
2023-09-20T13:21:19.036Z,99763.50
2023-09-20T13:23:45.816Z,99748.25
2023-09-20T13:26:12.908Z,99740.78
2023-09-20T13:28:39.794Z,99744.34
2023-09-20T13:31:08.328Z,99749.22
2023-09-20T13:33:35.102Z,99751.53
2023-09-20T13:36:01.759Z,99746.03
2023-09-20T13:38:28.475Z,99738.72
2023-09-20T13:40:56.434Z,99731.22
2023-09-20T13:43:23.110Z,99733.31
2023-09-20T13:45:50.079Z,99740.06
2023-09-20T13:48:16.806Z,99731.13
2023-09-20T13:50:44.174Z,99730.81
2023-09-20T13:53:11.279Z,99729.47
2023-09-20T13:55:37.979Z,99725.16
2023-09-20T13:58:04.688Z,99727.75
2023-09-20T14:00:31.370Z,99727.88
2023-09-20T14:02:58.829Z,99718.00
2023-09-20T14:05:27.639Z,99715.53
2023-09-20T14:07:57.220Z,99718.56
2023-09-20T14:10:25.649Z,99709.31
2023-09-20T14:12:52.674Z,99703.56
2023-09-20T14:15:23.099Z,99710.38
2023-09-20T14:17:53.012Z,99708.59
2023-09-20T14:20:22.207Z,99706.91
2023-09-20T14:22:54.268Z,99712.94
2023-09-20T14:25:25.453Z,99705.28
2023-09-20T14:27:52.903Z,99705.38
2023-09-20T14:30:20.263Z,99698.34
2023-09-20T14:32:49.199Z,99700.50
2023-09-20T14:35:16.833Z,99700.16
2023-09-20T14:37:48.937Z,99697.03
2023-09-20T14:40:25.118Z,99697.47
2023-09-20T14:42:57.549Z,99706.00
2023-09-20T14:45:30.589Z,99694.53
2023-09-20T14:48:00.687Z,99701.56
2023-09-20T14:50:27.653Z,99697.09
2023-09-20T14:52:54.994Z,99697.88
2023-09-20T14:55:22.005Z,99688.34
2023-09-20T14:57:52.998Z,99694.38
2023-09-20T15:00:20.562Z,99688.63
2023-09-20T15:02:48.266Z,99694.81
2023-09-20T15:05:15.864Z,99685.22
2023-09-20T15:07:49.568Z,99684.25
2023-09-20T15:10:18.039Z,99679.41
2023-09-20T15:12:49.589Z,99680.69
2023-09-20T15:15:16.701Z,99669.34
2023-09-20T15:17:44.668Z,99673.25
2023-09-20T15:20:12.181Z,99673.88
2023-09-20T15:22:38.827Z,99677.59
2023-09-20T15:25:05.977Z,99677.06
2023-09-20T15:27:32.711Z,99677.69
2023-09-20T15:30:00.197Z,99669.69
2023-09-20T15:32:27.552Z,99683.13
2023-09-20T15:34:58.450Z,99678.56
2023-09-20T15:37:27.451Z,99668.28
2023-09-20T15:39:55.162Z,99665.06
2023-09-20T15:42:23.146Z,99665.50
2023-09-20T15:44:51.425Z,99655.38
2023-09-20T15:47:18.994Z,99672.13
2023-09-20T15:49:46.695Z,99673.78
2023-09-20T15:52:15.600Z,99673.41
2023-09-20T15:54:45.267Z,99671.66
2023-09-20T15:57:13.027Z,99659.47
2023-09-20T15:59:40.640Z,99652.06
2023-09-20T16:02:08.098Z,99660.13
2023-09-20T16:04:35.209Z,99656.03
2023-09-20T16:07:04.082Z,99660.75
2023-09-20T16:09:30.610Z,99667.13
2023-09-20T16:11:57.365Z,99662.25
2023-09-20T16:14:24.519Z,99657.28
2023-09-20T16:16:51.268Z,99657.69
2023-09-20T16:19:17.817Z,99655.88
2023-09-20T16:21:44.391Z,99656.53
2023-09-20T16:24:11.010Z,99662.53
2023-09-20T16:26:38.920Z,99655.88
2023-09-20T16:29:05.515Z,99648.03
2023-09-20T16:31:32.580Z,99649.59
2023-09-20T16:33:59.363Z,99657.47
2023-09-20T16:36:26.216Z,99657.03
2023-09-20T16:38:52.948Z,99657.84
2023-09-20T16:41:19.641Z,99655.38
2023-09-20T16:43:46.303Z,99646.94
2023-09-20T16:46:12.841Z,99649.38
2023-09-20T16:48:39.486Z,99641.84
2023-09-20T16:51:07.043Z,99641.84
2023-09-20T16:53:38.220Z,99643.56
2023-09-20T16:56:05.561Z,99651.31
2023-09-20T16:58:34.090Z,99638.16
2023-09-20T17:01:00.703Z,99649.16
2023-09-20T17:03:27.376Z,99651.13
2023-09-20T17:05:54.050Z,99654.31
2023-09-20T17:08:20.589Z,99647.13
2023-09-20T17:10:47.256Z,99649.63
2023-09-20T17:13:13.862Z,99653.16
2023-09-20T17:15:40.312Z,99650.44
2023-09-20T17:18:07.707Z,99656.72
2023-09-20T17:20:34.542Z,99656.25
2023-09-20T17:23:01.070Z,99658.34
2023-09-20T17:25:27.735Z,99665.00
2023-09-20T17:27:54.316Z,99664.66
2023-09-20T17:30:22.081Z,99665.09
2023-09-20T17:32:50.093Z,99666.63
2023-09-20T17:35:17.427Z,99665.59
2023-09-20T17:37:44.337Z,99666.94
2023-09-20T17:40:11.689Z,99669.31
2023-09-20T17:42:38.954Z,99676.44
2023-09-20T17:45:06.646Z,99678.84
2023-09-20T17:47:35.853Z,99675.00
2023-09-20T17:50:02.583Z,99680.75
2023-09-20T17:52:29.794Z,99684.63
2023-09-20T17:54:56.308Z,99684.47
2023-09-20T17:57:24.835Z,99691.22
2023-09-20T17:59:52.536Z,99691.53
2023-09-20T18:02:19.400Z,99690.31
2023-09-20T18:04:47.328Z,99695.03
2023-09-20T18:07:14.020Z,99699.66
2023-09-20T18:09:40.527Z,99698.28
2023-09-20T18:12:07.445Z,99702.00
2023-09-20T18:14:33.989Z,99697.13
2023-09-20T18:17:00.609Z,99696.25
2023-09-20T18:19:27.884Z,99706.81
2023-09-20T18:21:54.750Z,99698.91
2023-09-20T18:24:21.342Z,99703.72
2023-09-20T18:26:49.836Z,99708.66
2023-09-20T18:29:17.601Z,99703.63
2023-09-20T18:31:44.624Z,99705.25
2023-09-20T18:34:11.229Z,99700.72
2023-09-20T18:36:37.785Z,99707.06
2023-09-20T18:39:04.671Z,99707.28
2023-09-20T18:41:31.462Z,99712.66
2023-09-20T18:43:59.945Z,99699.72
2023-09-20T18:46:27.361Z,99705.34
2023-09-20T18:48:54.715Z,99693.66
2023-09-20T18:51:21.500Z,99705.72
2023-09-20T18:53:48.563Z,99703.16
2023-09-20T18:56:16.444Z,99705.13
2023-09-20T18:58:43.518Z,99707.97
2023-09-20T19:01:22.770Z,99697.94
2023-09-20T19:03:50.180Z,99704.94
2023-09-20T19:06:21.538Z,99707.09
2023-09-20T19:08:50.813Z,99715.84
2023-09-20T19:11:19.309Z,99711.34
2023-09-20T19:13:46.880Z,99705.66
2023-09-20T19:16:16.161Z,99706.44
2023-09-20T19:18:44.464Z,99708.88
2023-09-20T19:21:12.418Z,99704.69
2023-09-20T19:23:39.075Z,99704.69
2023-09-20T19:26:06.236Z,99701.00
2023-09-20T19:28:33.282Z,99705.44
2023-09-20T19:31:05.251Z,99702.97
2023-09-20T19:33:32.152Z,99700.53
2023-09-20T19:36:00.776Z,99701.41
2023-09-20T19:38:27.483Z,99706.34
2023-09-20T19:40:54.315Z,99710.69
2023-09-20T19:43:20.835Z,99713.97
2023-09-20T19:45:47.352Z,99707.97
2023-09-20T19:48:14.211Z,99706.19
2023-09-20T19:50:44.033Z,99703.38
2023-09-20T19:53:13.292Z,99699.88
2023-09-20T19:55:41.053Z,99695.13
2023-09-20T19:58:09.555Z,99700.09
2023-09-20T20:00:39.407Z,99691.13
2023-09-20T20:03:07.965Z,99691.72
2023-09-20T20:05:34.625Z,99697.88
2023-09-20T20:08:07.310Z,99701.28
2023-09-20T20:10:41.374Z,99700.09
2023-09-20T20:13:08.148Z,99686.56
2023-09-20T20:15:34.790Z,99691.91
2023-09-20T20:18:02.877Z,99690.94
2023-09-20T20:20:31.987Z,99688.13
2023-09-20T20:23:00.476Z,99692.19
2023-09-20T20:25:39.638Z,99693.59
2023-09-20T20:28:13.102Z,99684.31
2023-09-20T20:30:40.430Z,99682.50
2023-09-20T20:33:06.998Z,99687.38
2023-09-20T20:35:33.720Z,99691.50
2023-09-20T20:38:00.282Z,99681.47
2023-09-20T20:40:26.872Z,99689.03
2023-09-20T20:42:54.217Z,99688.59
2023-09-20T20:45:21.412Z,99688.31
2023-09-20T20:47:50.914Z,99688.31
2023-09-20T20:50:26.264Z,99689.56
2023-09-20T20:52:54.180Z,99681.97
2023-09-20T20:55:23.854Z,99684.91
2023-09-20T20:57:51.182Z,99675.25
2023-09-20T21:00:25.912Z,99676.31
2023-09-20T21:02:54.121Z,99676.53
2023-09-20T21:05:25.520Z,99672.13
2023-09-20T21:07:53.194Z,99666.00
2023-09-20T21:10:20.788Z,99670.16
2023-09-20T21:12:49.439Z,99667.56
2023-09-20T21:15:17.019Z,99663.47
2023-09-20T21:17:45.029Z,99669.84
2023-09-20T21:20:21.438Z,99664.94
2023-09-20T21:22:53.507Z,99668.94
2023-09-20T21:25:24.329Z,99665.50
2023-09-20T21:27:58.380Z,99658.69
2023-09-20T21:30:26.835Z,99664.66
2023-09-20T21:32:56.456Z,99663.72
2023-09-20T21:35:25.734Z,99657.84
2023-09-20T21:37:56.129Z,99651.75
2023-09-20T21:40:23.912Z,99662.97
2023-09-20T21:42:51.389Z,99657.56
2023-09-20T21:45:19.639Z,99661.09
2023-09-20T21:47:56.485Z,99644.91
2023-09-20T21:50:24.928Z,99655.13
2023-09-20T21:52:55.851Z,99655.63
2023-09-20T21:55:23.866Z,99657.34
2023-09-20T21:57:53.740Z,99642.13
2023-09-20T22:00:21.273Z,99648.56
2023-09-20T22:02:53.704Z,99651.31
2023-09-20T22:05:24.280Z,99651.09
2023-09-20T22:07:55.093Z,99649.50
2023-09-20T22:10:39.075Z,99653.69
2023-09-20T22:13:08.236Z,99635.88
2023-09-20T22:15:36.632Z,99648.25
2023-09-20T22:18:11.401Z,99655.38
2023-09-20T22:20:39.380Z,99647.75
2023-09-20T22:23:09.129Z,99645.50
2023-09-20T22:25:35.660Z,99647.09
2023-09-20T22:28:02.221Z,99648.63
2023-09-20T22:30:28.821Z,99638.06
2023-09-20T22:32:55.415Z,99638.25
2023-09-20T22:35:22.280Z,99610.25
2023-09-20T22:37:50.838Z,99640.97
2023-09-20T22:40:18.984Z,99643.28
2023-09-20T22:42:51.083Z,99632.13
2023-09-20T22:45:23.511Z,99638.94
2023-09-20T22:47:54.979Z,99634.09
2023-09-20T22:50:24.566Z,99642.47
2023-09-20T22:52:53.908Z,99636.66
2023-09-20T22:55:21.458Z,99635.97
2023-09-20T22:57:48.313Z,99641.84
2023-09-20T23:00:22.775Z,99642.75
2023-09-20T23:02:50.784Z,99646.19
2023-09-20T23:05:19.589Z,99645.88
2023-09-20T23:07:54.936Z,99641.59
2023-09-20T23:10:25.009Z,99648.38
2023-09-20T23:12:53.693Z,99635.25
2023-09-20T23:15:21.714Z,99638.25
2023-09-20T23:17:52.304Z,99636.28
2023-09-20T23:20:38.651Z,99632.41
2023-09-20T23:23:06.521Z,99636.09
2023-09-20T23:25:37.399Z,99631.41
2023-09-20T23:28:12.747Z,99631.63
2023-09-20T23:30:41.418Z,99633.09
2023-09-20T23:33:09.920Z,99632.13
2023-09-20T23:35:40.557Z,99626.28
2023-09-20T23:38:14.254Z,99629.59
2023-09-20T23:40:44.159Z,99626.13
2023-09-20T23:43:12.143Z,99624.84
2023-09-20T23:45:38.665Z,99618.03
2023-09-20T23:48:05.380Z,99622.94
2023-09-20T23:50:31.955Z,99611.88
2023-09-20T23:52:58.443Z,99605.56
2023-09-20T23:55:25.106Z,99609.91
2023-09-20T23:57:52.148Z,99613.31
